Time;durP1;ratioP1;P1;durP2;ratioP2;P2;SDS_P1;SDS_P2;PMS_P1;PMS_P2;Temp;Humidity;BMP_temperature;BMP_pressure;BME280_temperature;BME280_humidity;BME280_pressure;Samples;Min_cycle;Max_cycle;Signal;HPM_P1;HPM_P2
2022/12/17 13:07:29;;;;;;;78.70;29.10;;;0.00;99.90;;;;;;5097201;28;20512;-64
2022/12/17 13:09:57;;;;;;;69.43;28.45;;;-0.20;99.90;;;;;;5108135;28;21522;-63
2022/12/17 13:12:38;;;;;;;83.20;26.65;;;-0.10;99.90;;;;;;5093172;28;20522;-63
2022/12/17 13:15:04;;;;;;;76.43;27.48;;;-0.10;99.90;;;;;;5109152;28;20059;-63
2022/12/17 13:17:40;;;;;;;77.65;28.52;;;-0.10;99.90;;;;;;5101512;28;20414;-62
2022/12/17 13:20:26;;;;;;;79.13;27.90;;;-0.10;99.90;;;;;;5107606;28;20051;-63
2022/12/17 13:23:22;;;;;;;72.97;26.95;;;-0.20;99.90;;;;;;5110579;28;20043;-63
2022/12/17 13:25:48;;;;;;;74.03;27.27;;;-0.10;99.90;;;;;;5084129;28;20046;-62
2022/12/17 13:28:29;;;;;;;78.18;29.70;;;-0.10;99.90;;;;;;5108713;28;20046;-63
2022/12/17 13:31:04;;;;;;;78.28;26.98;;;-0.10;99.90;;;;;;5090259;28;20036;-63
2022/12/17 13:33:44;;;;;;;83.97;26.75;;;-0.30;99.90;;;;;;5092741;28;20476;-64
2022/12/17 13:36:10;;;;;;;;;;;-0.20;99.90;;;;;;5097605;28;20100;-63
2022/12/17 13:38:41;;;;;;;79.38;28.38;;;-0.20;99.90;;;;;;5105659;28;20318;-63
2022/12/17 13:41:16;;;;;;;77.22;27.25;;;-0.20;99.90;;;;;;5101552;28;20483;-64
2022/12/17 13:43:57;;;;;;;81.90;28.65;;;-0.20;99.90;;;;;;5105861;28;20493;-63
2022/12/17 13:46:25;;;;;;;76.03;26.38;;;-0.20;99.90;;;;;;5102910;28;20463;-64
2022/12/17 13:48:59;;;;;;;68.45;21.27;;;-0.20;99.90;;;;;;5104374;28;20036;-64
2022/12/17 13:51:27;;;;;;;81.65;27.52;;;-0.20;99.90;;;;;;5087895;28;20134;-63
2022/12/17 13:54:01;;;;;;;84.88;28.50;;;-0.20;99.90;;;;;;5079693;28;20468;-64
2022/12/17 13:56:33;;;;;;;76.68;27.10;;;-0.30;99.90;;;;;;5105013;28;20067;-64
2022/12/17 13:59:01;;;;;;;76.57;27.08;;;-0.30;99.90;;;;;;5104191;28;20042;-64
2022/12/17 14:01:27;;;;;;;76.07;26.42;;;-0.30;99.90;;;;;;5103247;28;20039;-64
2022/12/17 14:03:58;;;;;;;74.18;27.25;;;-0.40;99.90;;;;;;5103944;28;20036;-63
2022/12/17 14:06:27;;;;;;;69.78;25.15;;;-0.50;99.90;;;;;;5107510;28;20031;-64
2022/12/17 14:08:55;;;;;;;71.78;25.48;;;-0.50;99.90;;;;;;5106000;28;20040;-64
2022/12/17 14:14:27;;;;;;;81.90;27.90;;;-0.40;99.90;;;;;;5098197;28;20039;-63
2022/12/17 14:16:53;;;;;;;82.90;28.13;;;-0.50;99.90;;;;;;5105269;28;20050;-64
2022/12/17 14:19:21;;;;;;;81.93;26.65;;;-0.50;99.90;;;;;;5107976;28;20050;-64
2022/12/17 14:21:47;;;;;;;82.75;26.50;;;-0.50;99.90;;;;;;5103922;28;20119;-65
2022/12/17 14:24:13;;;;;;;73.18;26.02;;;-0.50;99.90;;;;;;5089241;28;20119;-64
2022/12/17 14:26:50;;;;;;;72.70;26.08;;;-0.50;99.90;;;;;;5106038;28;20044;-63
2022/12/17 14:29:22;;;;;;;71.53;25.42;;;-0.50;99.90;;;;;;5099014;28;20126;-63
2022/12/17 14:31:59;;;;;;;82.43;24.92;;;-0.60;99.90;;;;;;5084728;28;20035;-64
2022/12/17 14:34:25;;;;;;;78.07;26.38;;;-0.60;99.90;;;;;;5081241;28;20376;-64
2022/12/17 14:37:15;;;;;;;80.93;27.65;;;-0.80;99.90;;;;;;5102671;28;20032;-64
2022/12/17 14:39:44;;;;;;;79.97;27.17;;;-0.90;99.90;;;;;;5089428;28;20060;-64
2022/12/17 14:42:25;;;;;;;85.63;25.85;;;-0.80;99.90;;;;;;5096707;28;20062;-63
2022/12/17 14:45:04;;;;;;;77.20;25.45;;;-0.90;99.90;;;;;;5104671;28;20035;-65
2022/12/17 14:47:32;;;;;;;75.20;24.13;;;-0.90;99.90;;;;;;5107013;28;20043;-65
2022/12/17 14:50:11;;;;;;;79.60;26.20;;;-0.90;99.90;;;;;;5085362;28;20086;-64
2022/12/17 14:52:43;;;;;;;84.30;27.13;;;-0.90;99.90;;;;;;5088846;28;20035;-65
2022/12/17 14:55:30;;;;;;;83.85;27.80;;;-1.00;99.90;;;;;;5101028;28;20057;-65
2022/12/17 14:58:17;;;;;;;81.47;26.85;;;-1.00;99.90;;;;;;5100501;28;20031;-65
2022/12/17 15:01:03;;;;;;;80.63;24.55;;;-1.00;99.90;;;;;;5098293;28;20048;-64
2022/12/17 15:03:32;;;;;;;78.82;25.23;;;-1.00;99.90;;;;;;5109259;28;20475;-65
2022/12/17 15:06:01;;;;;;;74.82;25.00;;;-1.10;99.90;;;;;;5102702;28;20028;-65
2022/12/17 15:08:39;;;;;;;75.93;25.57;;;-1.10;99.90;;;;;;5084061;28;20042;-64
2022/12/17 15:11:05;;;;;;;77.60;25.23;;;-1.10;99.90;;;;;;5089972;28;20051;-65
2022/12/17 15:13:31;;;;;;;82.75;25.25;;;-1.10;99.90;;;;;;5110734;28;20074;-64
2022/12/17 15:15:58;;;;;;;83.68;25.17;;;-1.10;99.90;;;;;;5090720;28;20090;-65
2022/12/17 15:18:23;;;;;;;83.75;26.20;;;-1.20;99.90;;;;;;5082656;28;20036;-64
2022/12/17 15:20:49;;;;;;;76.43;24.65;;;-1.10;99.90;;;;;;5106998;28;20050;-64
2022/12/17 15:23:17;;;;;;;93.15;26.80;;;-1.20;99.90;;;;;;5101188;27;20047;-64
2022/12/17 15:25:44;;;;;;;81.22;25.38;;;-1.30;99.90;;;;;;5104182;28;20040;-65
2022/12/17 15:28:10;;;;;;;79.05;24.98;;;-1.30;99.90;;;;;;5104589;28;20587;-65
2022/12/17 15:30:37;;;;;;;83.70;24.00;;;-1.20;99.90;;;;;;5105034;28;20032;-65
2022/12/17 15:33:02;;;;;;;89.50;25.02;;;-1.20;99.90;;;;;;5087162;28;20054;-64
2022/12/17 15:35:28;;;;;;;77.75;24.50;;;-1.20;99.90;;;;;;5105604;27;20488;-65
2022/12/17 15:37:54;;;;;;;78.07;24.58;;;-1.30;99.90;;;;;;5103702;28;20051;-65
2022/12/17 15:40:19;;;;;;;83.43;23.55;;;-1.30;99.90;;;;;;5084097;28;20040;-65
2022/12/17 15:45:30;;;;;;;91.40;26.42;;;-1.40;99.90;;;;;;5104079;28;20044;-64
2022/12/17 15:47:55;;;;;;;84.65;26.17;;;-1.40;99.90;;;;;;5108600;28;20045;-64
2022/12/17 15:50:21;;;;;;;96.78;26.30;;;-1.40;99.90;;;;;;5103952;28;20443;-64
2022/12/17 15:52:47;;;;;;;87.68;26.60;;;-1.40;99.90;;;;;;5104907;28;20077;-64
2022/12/17 15:55:12;;;;;;;86.68;24.77;;;-1.50;99.90;;;;;;5105110;28;20038;-65
2022/12/17 15:57:38;;;;;;;83.07;25.98;;;-1.50;99.90;;;;;;5082790;28;20114;-64
2022/12/17 16:00:04;;;;;;;89.43;26.58;;;-1.50;99.90;;;;;;5080386;28;20052;-65
2022/12/17 16:02:30;;;;;;;84.72;24.42;;;-1.50;99.90;;;;;;5082196;28;20126;-64
2022/12/17 16:04:55;;;;;;;75.32;24.40;;;-1.50;99.90;;;;;;5082390;28;20114;-64
2022/12/17 16:07:21;;;;;;;80.05;24.02;;;-1.70;99.90;;;;;;5108767;28;20130;-64
2022/12/17 16:09:46;;;;;;;78.95;23.40;;;-1.60;99.90;;;;;;5105620;28;20452;-64
2022/12/17 16:12:12;;;;;;;83.45;24.98;;;-1.60;99.90;;;;;;5106755;28;20058;-65
2022/12/17 16:14:37;;;;;;;82.05;25.50;;;-1.60;99.90;;;;;;5086064;28;20032;-64
2022/12/17 16:17:03;;;;;;;88.53;26.33;;;-1.60;99.90;;;;;;5105541;28;20409;-65
2022/12/17 16:19:28;;;;;;;91.72;25.38;;;-1.60;99.90;;;;;;5103878;28;20460;-64
2022/12/17 16:21:54;;;;;;;85.20;25.15;;;-1.60;99.90;;;;;;5099883;28;20036;-65
2022/12/17 16:24:20;;;;;;;88.57;25.42;;;-1.60;99.90;;;;;;5068992;28;20069;-64
2022/12/17 16:26:45;;;;;;;99.55;26.77;;;-1.60;99.90;;;;;;5089401;28;20042;-64
2022/12/17 16:29:11;;;;;;;91.70;26.52;;;-1.60;99.90;;;;;;5108285;28;20047;-65
2022/12/17 16:31:36;;;;;;;95.72;27.45;;;-1.60;99.90;;;;;;5104539;28;20115;-64
2022/12/17 16:34:07;;;;;;;84.32;25.30;;;-1.60;99.90;;;;;;5089636;28;20047;-65
2022/12/17 16:36:32;;;;;;;90.63;26.23;;;-1.60;99.90;;;;;;5085723;28;20055;-64
2022/12/17 16:38:58;;;;;;;89.13;27.08;;;-1.60;99.90;;;;;;5102476;28;20055;-65
2022/12/17 16:41:23;;;;;;;85.93;25.63;;;-1.60;99.90;;;;;;5108910;28;20101;-64
2022/12/17 16:43:49;;;;;;;90.93;26.52;;;-1.70;99.90;;;;;;5102418;28;20036;-64
2022/12/17 16:46:22;;;;;;;86.25;24.13;;;-1.70;99.90;;;;;;5070135;28;20078;-64
2022/12/17 16:48:48;;;;;;;86.47;24.25;;;-1.70;99.90;;;;;;5102094;28;20043;-65
2022/12/17 16:51:18;;;;;;;80.13;24.63;;;-1.70;99.90;;;;;;5107030;28;20032;-65
2022/12/17 16:53:46;;;;;;;80.80;23.67;;;-1.70;99.90;;;;;;5101103;28;20147;-65
2022/12/17 16:56:16;;;;;;;98.53;27.02;;;-1.80;99.90;;;;;;5083977;28;20118;-64
2022/12/17 16:58:42;;;;;;;89.57;24.73;;;-1.80;99.90;;;;;;5105288;28;20084;-64
2022/12/17 17:01:08;;;;;;;93.50;27.60;;;-1.80;99.90;;;;;;5087383;28;20028;-65
2022/12/17 17:03:33;;;;;;;88.00;27.00;;;-1.80;99.90;;;;;;5103651;28;20056;-64
2022/12/17 17:06:01;;;;;;;87.18;26.63;;;-1.80;99.90;;;;;;5090618;28;20039;-64
2022/12/17 17:08:27;;;;;;;91.00;26.42;;;-1.80;99.90;;;;;;5103255;28;20612;-65
2022/12/17 17:10:52;;;;;;;95.53;26.92;;;-1.80;99.90;;;;;;5099469;28;20189;-64
2022/12/17 17:13:18;;;;;;;95.43;26.17;;;-1.80;99.90;;;;;;5085198;28;20078;-65
2022/12/17 17:15:43;;;;;;;91.57;27.17;;;-1.80;99.90;;;;;;5080343;28;20056;-64
2022/12/17 17:18:09;;;;;;;86.85;26.67;;;-1.80;99.90;;;;;;5086799;28;20058;-65
2022/12/17 17:20:34;;;;;;;98.40;27.17;;;-1.90;99.90;;;;;;5105817;28;20035;-65
2022/12/17 17:23:00;;;;;;;90.47;26.15;;;-1.90;99.90;;;;;;5098161;28;21839;-64
2022/12/17 17:25:26;;;;;;;86.63;26.55;;;-1.90;99.90;;;;;;5080990;28;20528;-63
2022/12/17 17:27:51;;;;;;;95.20;26.95;;;-1.80;99.90;;;;;;5101856;28;20055;-64
2022/12/17 17:30:17;;;;;;;87.68;26.05;;;-1.80;99.90;;;;;;5088666;28;20052;-64
2022/12/17 17:32:42;;;;;;;95.10;27.73;;;-1.80;99.90;;;;;;5102388;28;20035;-64
2022/12/17 17:35:08;;;;;;;93.57;26.55;;;-1.90;99.90;;;;;;5076671;28;20034;-64
2022/12/17 17:37:33;;;;;;;83.88;24.98;;;-1.80;99.90;;;;;;5077817;28;20119;-65
2022/12/17 17:39:59;;;;;;;94.68;29.17;;;-1.90;99.90;;;;;;5105526;28;20078;-63
2022/12/17 17:42:24;;;;;;;80.70;25.65;;;-2.00;99.90;;;;;;5102345;28;20081;-64
2022/12/17 17:44:50;;;;;;;99.25;28.27;;;-2.00;99.90;;;;;;5084957;28;20043;-64
2022/12/17 17:47:16;;;;;;;96.78;28.70;;;-2.00;99.90;;;;;;5110461;28;20040;-63
2022/12/17 17:49:41;;;;;;;82.80;27.10;;;-2.00;99.90;;;;;;5103279;28;20135;-64
2022/12/17 17:52:07;;;;;;;83.15;27.40;;;-2.10;99.90;;;;;;5088186;28;20043;-63
2022/12/17 17:54:32;;;;;;;92.00;27.50;;;-2.10;99.90;;;;;;5086812;28;20086;-64
2022/12/17 17:56:59;;;;;;;85.28;28.88;;;-2.10;99.90;;;;;;5101084;28;20032;-65
2022/12/17 17:59:24;;;;;;;77.72;26.90;;;-2.20;99.90;;;;;;5084094;28;20044;-65
2022/12/17 18:01:50;;;;;;;89.22;28.75;;;-2.10;99.90;;;;;;5104752;28;20058;-65
2022/12/17 18:04:22;;;;;;;83.70;27.13;;;-2.10;99.90;;;;;;5085577;28;20122;-64
2022/12/17 18:06:48;;;;;;;81.90;27.90;;;-2.10;99.90;;;;;;5104055;28;20467;-64
2022/12/17 18:09:14;;;;;;;92.35;28.85;;;-2.10;99.90;;;;;;5088879;28;20123;-64
2022/12/17 18:11:41;;;;;;;91.03;28.55;;;-2.10;99.90;;;;;;5099339;28;20413;-63
2022/12/17 18:14:08;;;;;;;94.43;29.80;;;-2.20;99.90;;;;;;5084415;28;20056;-65
2022/12/17 18:16:45;;;;;;;86.70;27.55;;;-2.10;99.90;;;;;;5102720;28;20062;-64
2022/12/17 18:19:21;;;;;;;86.03;28.85;;;-2.20;99.90;;;;;;5108234;28;20126;-64
2022/12/17 18:21:47;;;;;;;80.65;29.33;;;-2.30;99.90;;;;;;5107910;28;20047;-63
2022/12/17 18:24:20;;;;;;;90.35;31.63;;;-2.40;99.90;;;;;;5103414;28;20039;-65
2022/12/17 18:26:46;;;;;;;83.53;28.55;;;-2.30;99.90;;;;;;5101868;27;20048;-64
2022/12/17 18:29:19;;;;;;;91.90;31.33;;;-2.40;99.90;;;;;;5104624;27;20044;-64
2022/12/17 18:31:44;;;;;;;94.90;29.85;;;-2.30;99.90;;;;;;5081878;27;20040;-64
2022/12/17 18:34:13;;;;;;;89.47;29.15;;;-2.30;99.90;;;;;;5110286;27;20046;-65
2022/12/17 18:36:41;;;;;;;98.60;33.50;;;-2.30;99.90;;;;;;5085747;28;20039;-64
2022/12/17 18:39:19;;;;;;;99.45;32.67;;;-2.30;99.90;;;;;;5084662;28;20044;-66
2022/12/17 18:44:32;;;;;;;92.25;31.75;;;-2.30;99.90;;;;;;5095571;27;20040;-64
2022/12/17 18:46:58;;;;;;;95.32;31.70;;;-2.30;99.90;;;;;;5086898;28;20828;-64
2022/12/17 18:49:25;;;;;;;99.80;33.67;;;-2.30;99.90;;;;;;5108139;28;20031;-64
2022/12/17 18:51:52;;;;;;;109.93;37.83;;;-2.30;99.90;;;;;;5104589;28;20032;-64
2022/12/17 18:54:23;;;;;;;112.13;34.35;;;-2.40;99.90;;;;;;5085677;28;20095;-64
2022/12/17 18:56:50;;;;;;;101.35;35.50;;;-2.40;99.90;;;;;;5109260;27;20127;-64
2022/12/17 18:59:18;;;;;;;91.38;30.67;;;-2.30;99.90;;;;;;5107219;28;20042;-64
2022/12/17 19:01:44;;;;;;;110.47;36.03;;;-2.30;99.90;;;;;;5085926;28;20054;-64
2022/12/17 19:04:12;;;;;;;98.35;33.97;;;-2.30;99.90;;;;;;5109756;28;20609;-64
2022/12/17 19:06:39;;;;;;;111.72;39.25;;;-2.30;99.90;;;;;;5099782;28;20040;-64
2022/12/17 19:09:06;;;;;;;107.45;36.38;;;-2.30;99.90;;;;;;5101343;28;20043;-64
2022/12/17 19:11:34;;;;;;;100.00;37.88;;;-2.30;99.90;;;;;;5108374;27;20044;-64
2022/12/17 19:14:00;;;;;;;108.40;35.10;;;-2.30;99.90;;;;;;5106753;28;20066;-64
2022/12/17 19:16:27;;;;;;;105.60;33.65;;;-2.30;99.90;;;;;;5102233;28;20052;-64
2022/12/17 19:19:01;;;;;;;110.47;35.42;;;-2.30;99.90;;;;;;5101431;27;20051;-65
2022/12/17 19:21:28;;;;;;;111.75;36.60;;;-2.30;99.90;;;;;;5102655;27;20050;-64
2022/12/17 19:23:59;;;;;;;109.85;33.88;;;-2.30;99.90;;;;;;5103954;27;20047;-64
2022/12/17 19:26:25;;;;;;;115.38;41.38;;;-2.30;99.90;;;;;;5071489;28;20047;-64
2022/12/17 19:28:52;;;;;;;115.82;36.38;;;-2.40;99.90;;;;;;5102750;28;20039;-65
2022/12/17 19:31:20;;;;;;;106.20;35.67;;;-2.40;99.90;;;;;;5103390;28;20035;-65
2022/12/17 19:33:46;;;;;;;115.85;37.53;;;-2.30;99.90;;;;;;5098144;28;20050;-63
2022/12/17 19:36:15;;;;;;;109.97;35.95;;;-2.40;99.90;;;;;;5101966;27;20126;-64
2022/12/17 19:38:41;;;;;;;108.45;36.88;;;-2.40;99.90;;;;;;5103471;28;20043;-64
2022/12/17 19:41:16;;;;;;;105.90;34.50;;;-2.40;99.90;;;;;;5081518;28;20044;-64
2022/12/17 19:43:44;;;;;;;114.15;35.88;;;-2.50;99.90;;;;;;5087052;28;20043;-64
2022/12/17 19:46:17;;;;;;;115.97;34.20;;;-2.50;99.90;;;;;;5098403;28;20379;-64
2022/12/17 19:48:44;;;;;;;100.50;34.25;;;-2.40;99.90;;;;;;5092102;28;20240;-65
2022/12/17 19:51:11;;;;;;;94.55;34.20;;;-2.40;99.90;;;;;;5106613;28;20659;-64
2022/12/17 19:53:39;;;;;;;114.47;37.30;;;-2.40;99.90;;;;;;5085957;28;23052;-64
2022/12/17 19:56:31;;;;;;;113.68;34.70;;;-2.50;99.90;;;;;;5100658;28;20039;-64
2022/12/17 19:59:03;;;;;;;107.75;34.67;;;-2.40;99.90;;;;;;5098362;28;20165;-64
2022/12/17 20:01:35;;;;;;;103.15;33.95;;;-2.50;99.90;;;;;;5091882;28;20047;-64
2022/12/17 20:04:01;;;;;;;103.93;35.22;;;-2.40;99.90;;;;;;5085070;28;20527;-65
2022/12/17 20:06:29;;;;;;;111.63;35.50;;;-2.50;99.90;;;;;;5102031;28;20040;-65
2022/12/17 20:08:56;;;;;;;103.00;34.95;;;-2.50;99.90;;;;;;5091164;28;20112;-65
2022/12/17 20:11:33;;;;;;;115.18;36.03;;;-2.40;99.90;;;;;;5090925;28;20046;-64
2022/12/17 20:14:15;;;;;;;101.80;33.60;;;-2.40;99.90;;;;;;5111370;28;20040;-64
2022/12/17 20:16:50;;;;;;;107.75;32.88;;;-2.50;99.90;;;;;;5111782;28;20066;-64
2022/12/17 20:19:22;;;;;;;107.57;34.35;;;-2.50;99.90;;;;;;5101555;28;20044;-64
2022/12/17 20:21:48;;;;;;;103.03;33.60;;;-2.40;99.90;;;;;;5107007;28;20032;-64
2022/12/17 20:24:14;;;;;;;109.22;35.53;;;-2.40;99.90;;;;;;5099318;28;20973;-64
2022/12/17 20:26:40;;;;;;;109.20;36.03;;;-2.40;99.90;;;;;;5103908;28;20131;-65
2022/12/17 20:29:07;;;;;;;104.28;34.75;;;-2.40;99.90;;;;;;5088923;28;20075;-64
2022/12/17 20:31:33;;;;;;;115.22;36.72;;;-2.40;99.90;;;;;;5088944;28;20471;-65
2022/12/17 20:34:06;;;;;;;109.90;34.85;;;-2.40;99.90;;;;;;5103789;28;20036;-65
2022/12/17 20:36:32;;;;;;;111.40;35.25;;;-2.40;99.90;;;;;;5067278;28;20051;-64
2022/12/17 20:38:58;;;;;;;102.22;33.88;;;-2.50;99.90;;;;;;5105620;28;20483;-63
2022/12/17 20:41:26;;;;;;;106.80;33.80;;;-2.50;99.90;;;;;;5110475;28;20535;-65
2022/12/17 20:43:53;;;;;;;107.38;34.55;;;-2.50;99.90;;;;;;5108164;28;20046;-65
2022/12/17 20:46:20;;;;;;;109.82;34.10;;;-2.50;99.90;;;;;;5091305;28;20039;-64
2022/12/17 20:48:46;;;;;;;103.60;32.08;;;-2.50;99.90;;;;;;5107928;28;20105;-65
2022/12/17 20:51:15;;;;;;;97.03;32.92;;;-2.50;99.90;;;;;;5107420;28;20044;-64
2022/12/17 20:53:42;;;;;;;103.43;31.65;;;-2.50;99.90;;;;;;5099397;28;20463;-64
2022/12/17 20:56:10;;;;;;;102.35;34.45;;;-2.60;99.90;;;;;;5089768;28;20039;-63
2022/12/17 20:58:37;;;;;;;99.03;32.05;;;-2.70;99.90;;;;;;5090210;28;20043;-65
2022/12/17 21:01:04;;;;;;;98.32;31.98;;;-2.70;99.90;;;;;;5112044;28;20502;-65
2022/12/17 21:03:31;;;;;;;98.32;33.20;;;-2.60;99.90;;;;;;5107678;28;20039;-64
2022/12/17 21:06:03;;;;;;;109.43;32.85;;;-2.70;99.90;;;;;;5107848;28;20039;-64
2022/12/17 21:08:28;;;;;;;98.72;30.80;;;-2.60;99.90;;;;;;5105702;28;20406;-64
2022/12/17 21:10:55;;;;;;;97.20;31.08;;;-2.60;99.90;;;;;;5097281;28;20103;-65
2022/12/17 21:13:30;;;;;;;105.00;33.58;;;-2.60;99.90;;;;;;5078115;28;20050;-64
2022/12/17 21:16:02;;;;;;;102.82;34.17;;;-2.80;99.90;;;;;;5105779;28;20059;-64
2022/12/17 21:18:29;;;;;;;112.55;34.08;;;-2.80;99.90;;;;;;5106159;28;20062;-64
2022/12/17 21:21:08;;;;;;;101.65;33.63;;;-2.90;99.90;;;;;;5106707;28;20055;-64
2022/12/17 21:23:34;;;;;;;120.65;37.20;;;-2.80;99.90;;;;;;5095973;28;20043;-63
2022/12/17 21:26:21;;;;;;;114.53;34.65;;;-2.90;99.90;;;;;;5097332;27;20081;-64
2022/12/17 21:28:50;;;;;;;107.30;34.55;;;-2.90;99.90;;;;;;5103224;28;20122;-64
2022/12/17 21:31:22;;;;;;;119.18;35.50;;;-2.90;99.90;;;;;;5084926;28;20036;-65
2022/12/17 21:33:48;;;;;;;117.30;34.13;;;-2.90;99.90;;;;;;5105033;28;20421;-64
2022/12/17 21:36:15;;;;;;;115.22;36.55;;;-3.00;99.90;;;;;;5106647;28;20475;-64
2022/12/17 21:38:41;;;;;;;105.13;32.53;;;-2.80;99.90;;;;;;5100798;28;20040;-65
2022/12/17 21:41:13;;;;;;;109.20;34.35;;;-2.90;99.90;;;;;;5096325;28;20042;-65
2022/12/17 21:43:39;;;;;;;105.57;33.20;;;-2.90;99.90;;;;;;5103343;28;20039;-64
2022/12/17 21:46:07;;;;;;;110.78;33.78;;;-2.90;99.90;;;;;;5108770;28;20043;-65
2022/12/17 21:48:33;;;;;;;113.00;33.20;;;-2.90;99.90;;;;;;5088290;28;20055;-64
2022/12/17 21:51:02;;;;;;;109.20;33.58;;;-3.00;99.90;;;;;;5089497;28;20368;-64
2022/12/17 21:53:27;;;;;;;109.43;33.65;;;-2.90;99.90;;;;;;5084754;28;20044;-65
2022/12/17 21:56:01;;;;;;;103.15;33.22;;;-2.90;99.90;;;;;;5108448;28;20051;-64
2022/12/17 21:58:27;;;;;;;116.78;36.88;;;-3.00;99.90;;;;;;5109896;28;20031;-64
2022/12/17 22:00:52;;;;;;;106.45;32.60;;;-3.00;99.90;;;;;;5106211;28;20039;-64
2022/12/17 22:03:18;;;;;;;103.75;32.47;;;-2.90;99.90;;;;;;5108193;28;20044;-64
2022/12/17 22:05:43;;;;;;;110.35;33.22;;;-2.90;99.90;;;;;;5111170;28;20130;-64
2022/12/17 22:08:11;;;;;;;107.45;33.35;;;-2.90;99.90;;;;;;5105030;28;20436;-65
2022/12/17 22:10:40;;;;;;;114.97;33.80;;;-3.00;99.90;;;;;;5111810;28;20481;-65
2022/12/17 22:15:49;;;;;;;113.57;34.55;;;-3.00;99.90;;;;;;5093859;28;20483;-64
2022/12/17 22:18:15;;;;;;;111.25;32.08;;;-3.00;99.90;;;;;;5102853;28;20036;-65
2022/12/17 22:20:40;;;;;;;110.85;33.00;;;-3.00;99.90;;;;;;5104566;28;20493;-65
2022/12/17 22:23:06;;;;;;;124.07;36.35;;;-3.00;99.90;;;;;;5111825;28;20494;-64
2022/12/17 22:25:36;;;;;;;104.10;33.17;;;-3.10;99.90;;;;;;5113494;28;20032;-65
2022/12/17 22:28:01;;;;;;;108.88;32.10;;;-3.10;99.90;;;;;;5109802;28;20440;-65
2022/12/17 22:33:12;;;;;;;116.05;34.47;;;-3.10;99.90;;;;;;5095862;28;20067;-65
2022/12/17 22:35:41;;;;;;;94.45;31.38;;;-3.00;99.90;;;;;;5101761;28;20027;-64
2022/12/17 22:38:07;;;;;;;91.22;28.48;;;-3.10;99.90;;;;;;5082860;28;20051;-64
2022/12/17 22:40:36;;;;;;;103.57;31.02;;;-3.10;99.90;;;;;;5077659;28;20039;-65
2022/12/17 22:45:46;;;;;;;108.65;30.13;;;-3.20;99.90;;;;;;5097289;28;20122;-64
2022/12/17 22:48:13;;;;;;;103.68;33.25;;;-3.20;99.90;;;;;;5101639;28;22795;-65
2022/12/17 22:50:39;;;;;;;98.25;30.48;;;-3.30;99.90;;;;;;5098867;28;20525;-64
2022/12/17 22:53:05;;;;;;;101.40;30.83;;;-3.20;99.90;;;;;;5111407;28;20131;-63
2022/12/17 22:55:32;;;;;;;99.80;29.33;;;-3.20;99.90;;;;;;5109068;28;20161;-65
2022/12/17 22:57:57;;;;;;;101.10;30.98;;;-3.20;99.90;;;;;;5107267;28;20475;-65
2022/12/17 23:00:26;;;;;;;108.57;30.98;;;-3.20;99.90;;;;;;5093335;28;20048;-63
2022/12/17 23:02:53;;;;;;;96.13;30.42;;;-3.20;99.90;;;;;;5091019;28;20047;-64
2022/12/17 23:05:20;;;;;;;96.55;29.33;;;-3.20;99.90;;;;;;5091126;28;20047;-64
2022/12/17 23:07:46;;;;;;;105.55;31.77;;;-3.10;99.90;;;;;;5091949;28;20048;-64
2022/12/17 23:10:12;;;;;;;96.07;28.50;;;-3.20;99.90;;;;;;5071641;28;20061;-64
2022/12/17 23:12:50;;;;;;;98.68;30.05;;;-3.20;99.90;;;;;;5097007;28;21269;-64
2022/12/17 23:15:25;;;;;;;95.50;28.25;;;-3.30;99.90;;;;;;5111743;28;20092;-64
2022/12/17 23:17:52;;;;;;;90.45;27.27;;;-3.30;99.90;;;;;;5106540;28;20122;-64
2022/12/17 23:20:18;;;;;;;85.40;26.05;;;-3.30;99.90;;;;;;5088716;28;20050;-64
2022/12/17 23:22:44;;;;;;;91.78;28.50;;;-3.30;99.90;;;;;;5109847;28;20089;-64
2022/12/17 23:25:10;;;;;;;90.82;28.67;;;-3.40;99.90;;;;;;5102837;28;20040;-64
2022/12/17 23:27:36;;;;;;;85.13;26.48;;;-3.40;99.90;;;;;;5092496;28;20042;-64
2022/12/17 23:30:02;;;;;;;80.18;24.33;;;-3.50;99.90;;;;;;5111364;28;20376;-64
2022/12/17 23:32:28;;;;;;;80.75;25.70;;;-3.60;99.90;;;;;;5089645;28;20043;-65
2022/12/17 23:34:53;;;;;;;84.50;27.88;;;-3.50;99.90;;;;;;5090229;28;20043;-64
2022/12/17 23:37:19;;;;;;;79.22;26.10;;;-3.60;99.90;;;;;;5088410;28;20039;-64
2022/12/17 23:39:44;;;;;;;91.75;27.35;;;-3.60;99.90;;;;;;5085194;28;20067;-64
2022/12/17 23:42:10;;;;;;;88.53;27.25;;;-3.60;99.90;;;;;;5097572;28;20120;-64
2022/12/17 23:44:36;;;;;;;87.72;26.75;;;-3.60;99.90;;;;;;5105193;28;20133;-65
2022/12/17 23:47:01;;;;;;;78.93;26.30;;;-3.60;99.90;;;;;;5100706;28;20047;-63
2022/12/17 23:49:27;;;;;;;86.05;26.65;;;-3.60;99.90;;;;;;5098230;28;20050;-65
2022/12/17 23:51:52;;;;;;;93.60;26.17;;;-3.60;99.90;;;;;;5109466;28;20043;-65
2022/12/17 23:54:18;;;;;;;90.38;28.63;;;-3.60;99.90;;;;;;5111638;28;20062;-64
2022/12/17 23:56:44;;;;;;;87.13;27.42;;;-3.60;99.90;;;;;;5108793;28;20047;-63
2022/12/17 23:59:10;;;;;;;89.75;27.10;;;-3.70;99.90;;;;;;5104602;28;20122;-64
